Time;durP1;ratioP1;P1;durP2;ratioP2;P2;SDS_P1;SDS_P2;PMS_P1;PMS_P2;Temp;Humidity;BMP_temperature;BMP_pressure;BME280_temperature;BME280_humidity;BME280_pressure;Samples;Min_cycle;Max_cycle;Signal;HPM_P1;HPM_P2
2022/11/12 00:00:35;;;;;;;10.90;4.72;;;6.70;99.90;;;;;;4986907;28;20113;-67
2022/11/12 00:03:01;;;;;;;6.70;3.75;;;6.70;99.90;;;;;;4987188;28;20287;-68
2022/11/12 00:05:27;;;;;;;8.18;4.47;;;6.70;99.90;;;;;;4979420;28;20023;-67
2022/11/12 00:07:53;;;;;;;7.40;4.13;;;6.60;99.90;;;;;;4987352;28;20482;-68
2022/11/12 00:10:18;;;;;;;8.82;4.32;;;6.60;99.90;;;;;;4987647;28;20034;-68
2022/11/12 00:12:44;;;;;;;10.02;4.20;;;6.70;99.90;;;;;;4987466;28;20109;-68
2022/11/12 00:15:10;;;;;;;7.32;3.65;;;6.80;99.90;;;;;;4980939;28;20467;-68
2022/11/12 00:17:36;;;;;;;8.48;4.00;;;6.70;99.90;;;;;;4984931;28;20203;-68
2022/11/12 00:20:02;;;;;;;8.27;4.22;;;6.70;99.90;;;;;;4985467;28;20106;-68
2022/11/12 00:22:27;;;;;;;13.88;4.20;;;6.60;99.90;;;;;;4987880;28;20026;-67
2022/11/12 00:24:53;;;;;;;10.45;4.47;;;6.40;99.90;;;;;;4985123;28;20097;-68
2022/11/12 00:27:18;;;;;;;8.35;4.50;;;6.40;99.90;;;;;;4988678;28;20099;-68
2022/11/12 00:29:44;;;;;;;7.15;4.35;;;6.30;99.90;;;;;;4978185;28;20439;-68
2022/11/12 00:32:10;;;;;;;7.43;4.50;;;6.30;99.90;;;;;;4978873;28;20038;-67
2022/11/12 00:34:36;;;;;;;9.45;5.50;;;6.30;99.90;;;;;;4985425;28;20036;-68
2022/11/12 00:37:01;;;;;;;7.95;4.32;;;6.20;99.90;;;;;;4990378;28;20487;-68
2022/11/12 00:39:27;;;;;;;11.00;5.00;;;6.10;99.90;;;;;;4980217;28;20110;-68
2022/11/12 00:41:53;;;;;;;10.52;4.60;;;6.10;99.90;;;;;;4981165;28;20030;-68
2022/11/12 00:44:19;;;;;;;11.65;5.05;;;6.00;99.90;;;;;;4982953;28;20443;-68
2022/11/12 00:46:44;;;;;;;8.20;4.88;;;6.00;99.90;;;;;;4979246;28;20018;-68
2022/11/12 00:49:10;;;;;;;11.65;5.93;;;5.90;99.90;;;;;;4983987;28;20060;-68
2022/11/12 00:51:36;;;;;;;10.32;4.85;;;5.90;99.90;;;;;;4979809;28;20427;-68
2022/11/12 00:54:01;;;;;;;9.70;4.65;;;5.90;99.90;;;;;;4979654;28;20030;-68
2022/11/12 00:56:27;;;;;;;13.13;4.90;;;5.90;99.90;;;;;;4983934;28;20046;-68
2022/11/12 00:58:53;;;;;;;9.38;5.13;;;5.90;99.90;;;;;;4982757;28;20035;-67
2022/11/12 01:01:19;;;;;;;9.80;4.80;;;5.90;99.90;;;;;;4979617;28;20038;-68
2022/11/12 01:03:45;;;;;;;13.00;5.57;;;5.80;99.90;;;;;;4977958;28;20053;-67
2022/11/12 01:06:17;;;;;;;14.10;5.25;;;5.90;99.90;;;;;;4981495;28;20023;-68
2022/11/12 01:08:43;;;;;;;7.35;4.82;;;5.90;99.90;;;;;;4985623;28;20025;-68
2022/11/12 01:11:20;;;;;;;9.35;4.60;;;5.90;99.90;;;;;;4981456;28;20026;-69
2022/11/12 01:13:51;;;;;;;8.85;4.60;;;5.90;99.90;;;;;;4981229;28;20022;-68
2022/11/12 01:16:19;;;;;;;8.15;5.03;;;5.80;99.90;;;;;;4985784;28;20045;-68
2022/11/12 01:18:46;;;;;;;8.13;4.30;;;5.80;99.90;;;;;;4985836;28;20027;-68
2022/11/12 01:21:12;;;;;;;9.73;4.53;;;5.80;99.90;;;;;;4985886;28;20042;-68
2022/11/12 01:23:40;;;;;;;9.50;4.93;;;5.80;99.90;;;;;;4978478;28;20615;-68
2022/11/12 01:26:15;;;;;;;13.10;5.10;;;5.80;99.90;;;;;;4982104;28;20101;-68
2022/11/12 01:28:41;;;;;;;12.88;4.68;;;5.70;99.90;;;;;;4982686;28;20109;-68
2022/11/12 01:31:14;;;;;;;11.48;4.95;;;5.80;99.90;;;;;;4986012;28;20168;-67
2022/11/12 01:33:42;;;;;;;11.02;5.00;;;5.80;99.90;;;;;;4986711;28;20045;-67
2022/11/12 01:36:09;;;;;;;10.98;5.68;;;5.80;99.90;;;;;;4975975;28;20030;-68
2022/11/12 01:38:39;;;;;;;8.88;4.25;;;5.80;99.90;;;;;;4986824;28;20022;-68
2022/11/12 01:41:06;;;;;;;8.82;4.53;;;5.80;99.90;;;;;;4984095;28;20030;-67
2022/11/12 01:43:32;;;;;;;11.52;5.03;;;5.70;99.90;;;;;;4987623;28;20039;-68
2022/11/12 01:46:01;;;;;;;11.15;5.75;;;5.70;99.90;;;;;;4982189;28;20441;-68
2022/11/12 01:48:28;;;;;;;11.27;5.47;;;5.70;99.90;;;;;;4974561;28;20030;-67
2022/11/12 01:50:55;;;;;;;8.75;5.00;;;5.70;99.90;;;;;;4980852;28;20113;-68
2022/11/12 01:53:24;;;;;;;7.25;3.95;;;5.70;99.90;;;;;;4987821;28;20030;-68
2022/11/12 01:55:50;;;;;;;10.15;5.22;;;5.70;99.90;;;;;;4991794;28;20022;-67
2022/11/12 01:58:21;;;;;;;13.18;4.82;;;5.60;99.90;;;;;;4989965;28;20448;-68
2022/11/12 02:00:47;;;;;;;9.57;5.30;;;5.60;99.90;;;;;;4979550;28;20712;-68
2022/11/12 02:03:19;;;;;;;8.20;4.45;;;5.60;99.90;;;;;;4991253;28;20491;-68
2022/11/12 02:05:48;;;;;;;8.07;4.50;;;5.60;99.90;;;;;;4990267;28;20432;-68
2022/11/12 02:08:14;;;;;;;11.13;4.63;;;5.50;99.90;;;;;;4979052;28;20039;-68
2022/11/12 02:10:40;;;;;;;16.30;5.07;;;5.50;99.90;;;;;;4981881;28;20041;-67
2022/11/12 02:15:51;;;;;;;9.88;4.03;;;5.40;99.90;;;;;;4982306;28;20053;-68
2022/11/12 02:18:17;;;;;;;7.80;4.28;;;5.40;99.90;;;;;;4988532;28;20487;-68
2022/11/12 02:20:43;;;;;;;8.23;4.40;;;5.40;99.90;;;;;;4983855;28;20069;-67
2022/11/12 02:23:09;;;;;;;7.05;4.45;;;5.50;99.90;;;;;;4986791;28;20587;-68
2022/11/12 02:25:35;;;;;;;10.55;4.07;;;5.50;99.90;;;;;;4983153;28;20034;-68
2022/11/12 02:28:05;;;;;;;11.60;4.60;;;5.60;99.90;;;;;;4977833;28;20031;-68
2022/11/12 02:30:43;;;;;;;6.80;4.55;;;5.60;99.90;;;;;;4986835;28;20034;-68
2022/11/12 02:33:09;;;;;;;13.90;5.53;;;5.70;99.90;;;;;;4984215;28;20038;-68
2022/11/12 02:35:34;;;;;;;6.35;3.80;;;5.70;99.90;;;;;;4979472;28;20043;-68
2022/11/12 02:38:00;;;;;;;8.95;4.68;;;5.70;99.90;;;;;;4982101;28;20030;-68
2022/11/12 02:40:26;;;;;;;7.65;4.63;;;5.60;99.90;;;;;;4982699;28;20044;-68
2022/11/12 02:42:51;;;;;;;13.27;5.05;;;5.60;99.90;;;;;;4982209;28;20015;-67
2022/11/12 02:45:18;;;;;;;7.40;4.20;;;5.60;99.90;;;;;;4984698;28;20026;-68
2022/11/12 02:47:44;;;;;;;7.70;4.45;;;5.50;99.90;;;;;;4981271;28;20034;-68
2022/11/12 02:50:10;;;;;;;6.30;3.60;;;5.50;99.90;;;;;;4974800;28;20098;-68
2022/11/12 02:52:35;;;;;;;12.30;4.15;;;5.50;99.90;;;;;;4982811;28;20054;-67
2022/11/12 02:55:01;;;;;;;7.03;3.90;;;5.40;99.90;;;;;;4981811;28;20448;-68
2022/11/12 02:57:28;;;;;;;7.65;4.53;;;5.40;99.90;;;;;;4986577;28;20034;-68
2022/11/12 02:59:54;;;;;;;12.00;4.00;;;5.40;99.90;;;;;;4982361;28;20035;-68
2022/11/12 03:02:19;;;;;;;5.97;4.20;;;5.40;99.90;;;;;;4984296;28;20408;-67
2022/11/12 03:04:45;;;;;;;6.20;3.97;;;5.40;99.90;;;;;;4988545;28;20022;-68
2022/11/12 03:07:11;;;;;;;7.22;3.50;;;5.40;99.90;;;;;;4989740;28;20034;-68
2022/11/12 03:09:36;;;;;;;11.15;4.40;;;5.40;99.90;;;;;;4975118;28;20054;-68
2022/11/12 03:12:02;;;;;;;6.60;4.22;;;5.40;99.90;;;;;;4985050;28;20042;-68
2022/11/12 03:14:27;;;;;;;5.45;3.63;;;5.40;99.90;;;;;;4981415;28;20408;-68
2022/11/12 03:16:53;;;;;;;8.90;4.18;;;5.40;99.90;;;;;;4975039;28;20055;-68
2022/11/12 03:19:18;;;;;;;12.65;4.53;;;5.40;99.90;;;;;;4975650;28;20046;-68
2022/11/12 03:21:44;;;;;;;8.50;3.92;;;5.40;99.90;;;;;;4978569;28;20019;-68
2022/11/12 03:24:10;;;;;;;7.78;3.60;;;5.40;99.90;;;;;;4987907;28;20034;-67
2022/11/12 03:26:35;;;;;;;10.82;4.05;;;5.40;99.90;;;;;;4980421;28;20023;-68
2022/11/12 03:29:01;;;;;;;7.50;4.65;;;5.40;99.90;;;;;;4982462;28;20041;-68
2022/11/12 03:31:26;;;;;;;5.57;3.33;;;5.40;99.90;;;;;;4988725;28;20105;-67
2022/11/12 03:33:52;;;;;;;10.45;4.50;;;5.30;99.90;;;;;;4985896;28;20063;-68
2022/11/12 03:36:18;;;;;;;10.63;4.00;;;5.20;99.90;;;;;;4983160;28;20043;-68
2022/11/12 03:38:43;;;;;;;7.32;4.10;;;5.10;99.90;;;;;;4989414;28;20400;-68
2022/11/12 03:41:09;;;;;;;6.90;3.97;;;5.10;99.90;;;;;;4990845;28;20392;-68
2022/11/12 03:43:34;;;;;;;8.07;4.13;;;5.00;99.90;;;;;;4992840;28;20030;-68
2022/11/12 03:46:00;;;;;;;9.38;4.32;;;5.00;99.90;;;;;;4990665;28;20022;-68
2022/11/12 03:48:26;;;;;;;7.85;4.45;;;5.00;99.90;;;;;;4985500;28;20563;-68
2022/11/12 03:50:52;;;;;;;10.57;5.00;;;5.00;99.90;;;;;;4977830;28;20038;-68
2022/11/12 03:53:17;;;;;;;7.13;3.95;;;5.00;99.90;;;;;;4990004;28;20073;-68
2022/11/12 03:55:43;;;;;;;9.15;4.32;;;5.10;99.90;;;;;;4980915;28;20138;-66
2022/11/12 03:58:09;;;;;;;8.38;3.55;;;5.10;99.90;;;;;;4985497;28;20055;-68
2022/11/12 04:00:34;;;;;;;8.85;4.30;;;5.20;99.90;;;;;;4991453;28;20040;-68
2022/11/12 04:03:00;;;;;;;8.85;4.00;;;5.10;99.90;;;;;;4992537;28;20064;-68
2022/11/12 04:10:59;;;;;;;9.38;4.30;;;5.10;99.90;;;;;;4986454;28;20185;-68
2022/11/12 04:13:27;;;;;;;8.15;4.35;;;5.00;99.90;;;;;;4989976;28;20065;-68
2022/11/12 04:21:53;;;;;;;8.35;4.25;;;4.60;99.90;;;;;;4984495;28;20097;-68
2022/11/12 04:27:19;;;;;;;8.93;4.30;;;4.40;99.90;;;;;;4982668;28;20037;-68
2022/11/12 04:32:32;;;;;;;6.50;4.15;;;4.40;99.90;;;;;;4990166;28;20136;-68
2022/11/12 04:34:58;;;;;;;6.95;4.28;;;4.40;99.90;;;;;;4989428;28;20038;-68
2022/11/12 04:37:25;;;;;;;11.23;3.92;;;4.50;99.90;;;;;;4989829;28;20041;-68
2022/11/12 04:39:51;;;;;;;9.65;4.40;;;4.60;99.90;;;;;;4984926;28;20037;-68
2022/11/12 04:45:05;;;;;;;;;;;4.50;99.90;;;;;;4992712;28;20461;-68
2022/11/12 04:47:36;;;;;;;9.18;3.88;;;4.50;99.90;;;;;;4987703;28;19964;-68
2022/11/12 04:50:06;;;;;;;11.95;4.57;;;4.40;99.90;;;;;;4982640;28;20089;-68
2022/11/12 04:52:31;;;;;;;10.48;6.38;;;4.40;99.90;;;;;;4990422;28;20026;-67
2022/11/12 04:54:57;;;;;;;14.20;6.57;;;4.30;99.90;;;;;;4985289;28;20396;-68
2022/11/12 04:57:23;;;;;;;13.27;6.45;;;4.30;99.90;;;;;;4984388;28;20039;-68
2022/11/12 04:59:49;;;;;;;10.95;5.82;;;4.30;99.90;;;;;;4986668;28;20306;-68
2022/11/12 05:02:16;;;;;;;11.35;6.38;;;4.40;99.90;;;;;;4991214;28;20384;-68
2022/11/12 05:04:42;;;;;;;6.93;4.28;;;4.40;99.90;;;;;;4990463;28;20061;-68
2022/11/12 05:07:08;;;;;;;7.45;4.82;;;4.40;99.90;;;;;;4990023;28;20034;-68
2022/11/12 05:09:33;;;;;;;12.10;4.72;;;4.40;99.90;;;;;;4979736;28;20381;-68
2022/11/12 05:11:59;;;;;;;8.23;3.90;;;4.30;99.90;;;;;;4984602;28;20030;-67
2022/11/12 05:14:25;;;;;;;8.27;4.13;;;4.30;99.90;;;;;;4989424;28;20495;-68
2022/11/12 05:16:51;;;;;;;7.55;4.18;;;4.30;99.90;;;;;;4984028;28;20109;-68
2022/11/12 05:19:16;;;;;;;6.85;3.70;;;4.30;99.90;;;;;;4984307;28;20030;-68
2022/11/12 05:24:26;;;;;;;;;;;4.20;99.90;;;;;;4985058;28;20072;-68
2022/11/12 05:26:53;;;;;;;8.60;3.92;;;4.20;99.90;;;;;;4985873;28;20439;-68
2022/11/12 05:29:18;;;;;;;7.22;3.90;;;4.10;99.90;;;;;;4978605;28;20042;-68
2022/11/12 05:31:44;;;;;;;6.75;3.83;;;4.10;99.90;;;;;;4978631;28;20485;-68
2022/11/12 05:34:10;;;;;;;10.00;4.50;;;4.10;99.90;;;;;;4979336;28;20409;-67
2022/11/12 05:36:36;;;;;;;7.78;4.50;;;4.00;99.90;;;;;;4982772;28;20022;-68
2022/11/12 05:39:02;;;;;;;8.88;4.45;;;4.10;99.90;;;;;;4987773;28;20057;-68
2022/11/12 05:41:27;;;;;;;8.07;4.40;;;4.10;99.90;;;;;;4984347;28;20040;-68
2022/11/12 05:43:53;;;;;;;8.60;4.50;;;4.00;99.90;;;;;;4979717;28;20023;-68
2022/11/12 05:46:19;;;;;;;9.43;4.28;;;4.00;99.90;;;;;;4976181;28;20026;-68
2022/11/12 05:48:44;;;;;;;8.85;4.18;;;3.90;99.90;;;;;;4985719;28;20038;-67
2022/11/12 05:51:12;;;;;;;13.50;4.55;;;3.90;99.90;;;;;;4976700;28;20042;-68
2022/11/12 05:53:40;;;;;;;8.02;4.80;;;4.00;99.90;;;;;;4979203;28;20043;-68
2022/11/12 05:56:07;;;;;;;8.70;5.07;;;3.90;99.90;;;;;;4986580;28;20380;-68
2022/11/12 05:58:34;;;;;;;7.40;3.65;;;4.00;99.90;;;;;;4980162;28;20389;-67
2022/11/12 06:00:59;;;;;;;8.32;3.90;;;4.10;99.90;;;;;;4981403;28;20034;-68
2022/11/12 06:03:25;;;;;;;7.40;4.15;;;4.20;99.90;;;;;;4984575;28;20499;-68
2022/11/12 06:05:51;;;;;;;10.15;5.25;;;4.20;99.90;;;;;;4986764;28;20431;-68
2022/11/12 06:08:17;;;;;;;9.55;4.50;;;4.20;99.90;;;;;;4986228;28;20077;-68
2022/11/12 06:10:48;;;;;;;11.07;4.32;;;4.30;99.90;;;;;;4975894;28;20687;-68
2022/11/12 06:13:13;;;;;;;9.77;4.03;;;4.30;99.90;;;;;;4991249;28;20054;-68
2022/11/12 06:15:39;;;;;;;6.50;3.55;;;4.40;99.90;;;;;;4982855;28;20060;-68
2022/11/12 06:18:04;;;;;;;6.65;2.95;;;4.40;99.90;;;;;;4988557;28;20022;-68
2022/11/12 06:20:30;;;;;;;6.38;3.00;;;4.50;99.90;;;;;;4977001;28;20022;-67
2022/11/12 06:22:56;;;;;;;4.60;3.13;;;4.50;99.90;;;;;;4988686;28;20025;-68
2022/11/12 06:25:21;;;;;;;6.93;3.03;;;4.60;99.90;;;;;;4982517;28;20026;-68
2022/11/12 06:27:47;;;;;;;5.05;2.60;;;4.80;99.90;;;;;;4980919;28;20068;-67
2022/11/12 06:30:13;;;;;;;6.32;2.90;;;4.90;99.90;;;;;;4984423;28;20133;-68
2022/11/12 06:32:38;;;;;;;12.65;2.85;;;4.90;99.90;;;;;;4989954;28;20484;-68
2022/11/12 06:35:04;;;;;;;5.20;2.88;;;4.90;99.90;;;;;;4982171;28;20030;-68
2022/11/12 06:37:30;;;;;;;6.07;2.72;;;4.90;99.90;;;;;;4985855;28;20027;-68
2022/11/12 06:39:56;;;;;;;5.60;2.22;;;4.90;99.90;;;;;;4978496;28;20484;-68
2022/11/12 06:42:21;;;;;;;6.32;2.90;;;4.90;99.90;;;;;;4983562;28;20022;-68
2022/11/12 06:44:47;;;;;;;5.45;2.50;;;5.10;99.90;;;;;;4975574;28;20018;-68
2022/11/12 06:47:14;;;;;;;4.63;2.50;;;5.10;99.90;;;;;;4987236;28;20170;-68
2022/11/12 06:49:39;;;;;;;5.30;2.60;;;5.10;99.90;;;;;;4978547;28;20038;-68
2022/11/12 06:52:05;;;;;;;9.75;2.90;;;5.20;99.90;;;;;;4984394;28;20400;-68
2022/11/12 06:54:31;;;;;;;7.20;2.67;;;5.20;99.90;;;;;;4987550;28;20037;-68
2022/11/12 06:56:56;;;;;;;5.38;2.70;;;5.30;99.90;;;;;;4978856;28;20027;-68
2022/11/12 06:59:22;;;;;;;5.15;2.22;;;5.30;99.90;;;;;;4981888;28;20115;-68
2022/11/12 07:01:47;;;;;;;5.10;2.53;;;5.40;99.90;;;;;;4979268;28;20125;-68
2022/11/12 07:04:13;;;;;;;5.03;2.78;;;5.40;99.90;;;;;;4981965;28;20098;-67
2022/11/12 07:06:38;;;;;;;4.90;1.90;;;5.40;99.90;;;;;;4980163;28;20022;-68
2022/11/12 07:09:04;;;;;;;5.10;2.35;;;5.50;99.90;;;;;;4984764;28;20038;-68
2022/11/12 07:11:30;;;;;;;4.13;1.90;;;5.40;99.90;;;;;;4992066;28;20026;-68
2022/11/12 07:13:56;;;;;;;4.10;2.20;;;5.40;99.90;;;;;;4992371;28;20025;-68
2022/11/12 07:16:21;;;;;;;6.57;2.33;;;5.40;99.90;;;;;;4986744;28;20388;-68
2022/11/12 07:18:48;;;;;;;6.72;2.42;;;5.30;99.90;;;;;;4984590;28;20061;-68
2022/11/12 07:21:19;;;;;;;3.97;1.90;;;5.20;99.90;;;;;;4985143;28;20027;-68
2022/11/12 07:23:46;;;;;;;5.15;2.22;;;5.20;99.90;;;;;;4990500;28;20022;-68
2022/11/12 07:26:12;;;;;;;5.57;2.20;;;5.10;99.90;;;;;;4986846;28;20037;-68
2022/11/12 07:28:38;;;;;;;4.15;2.33;;;5.10;99.90;;;;;;4986710;28;20039;-68
2022/11/12 07:31:06;;;;;;;10.45;2.63;;;5.00;99.90;;;;;;4987480;28;20057;-68
2022/11/12 07:33:32;;;;;;;4.22;2.47;;;4.90;99.90;;;;;;4984191;28;20038;-67
2022/11/12 07:36:13;;;;;;;6.75;2.72;;;4.80;99.90;;;;;;4983075;28;20408;-68
2022/11/12 07:38:40;;;;;;;6.57;3.10;;;4.80;99.90;;;;;;4983745;28;20040;-68
2022/11/12 07:41:17;;;;;;;6.57;4.22;;;4.80;99.90;;;;;;4977351;28;20077;-68
2022/11/12 07:43:45;;;;;;;9.07;4.78;;;4.80;99.90;;;;;;4985207;28;20025;-68
2022/11/12 07:46:13;;;;;;;8.48;4.00;;;4.80;99.90;;;;;;4986591;28;20037;-67
2022/11/12 07:48:40;;;;;;;7.57;3.45;;;4.90;99.90;;;;;;4989905;28;20097;-68
2022/11/12 07:51:09;;;;;;;5.78;2.83;;;5.00;99.90;;;;;;4991937;28;20066;-67
2022/11/12 07:53:35;;;;;;;4.78;2.22;;;5.00;99.90;;;;;;4985463;28;20097;-67
2022/11/12 07:56:03;;;;;;;7.53;2.72;;;5.10;99.90;;;;;;4986573;28;20038;-68
2022/11/12 07:58:31;;;;;;;8.20;2.85;;;5.10;99.90;;;;;;4986278;28;20546;-67
2022/11/12 08:00:57;;;;;;;4.60;2.75;;;5.20;99.90;;;;;;4959808;28;20535;-68
2022/11/12 08:03:23;;;;;;;3.13;2.25;;;5.20;99.90;;;;;;4987878;28;20034;-68
2022/11/12 08:05:49;;;;;;;6.05;2.35;;;5.30;99.90;;;;;;4986563;28;20034;-67
2022/11/12 08:08:15;;;;;;;5.95;2.22;;;5.40;99.90;;;;;;4988445;28;20026;-68
2022/11/12 08:10:41;;;;;;;5.20;2.78;;;5.50;99.90;;;;;;4988980;28;20507;-68
2022/11/12 08:13:07;;;;;;;6.53;2.08;;;5.60;99.90;;;;;;4991016;28;20034;-68
2022/11/12 08:15:32;;;;;;;10.50;2.47;;;5.70;99.90;;;;;;4980664;28;20515;-67
2022/11/12 08:17:58;;;;;;;7.10;2.60;;;5.80;99.90;;;;;;4987444;28;20556;-68
2022/11/12 08:20:23;;;;;;;5.65;2.25;;;5.90;99.90;;;;;;4982735;28;20030;-67
2022/11/12 08:22:49;;;;;;;3.60;2.25;;;6.00;99.90;;;;;;4984397;28;20019;-67
2022/11/12 08:25:15;;;;;;;3.38;2.38;;;6.00;99.90;;;;;;4976427;28;20031;-67
2022/11/12 08:27:41;;;;;;;5.18;2.80;;;6.10;99.90;;;;;;4987552;28;20031;-67
2022/11/12 08:30:07;;;;;;;5.00;2.17;;;6.20;99.90;;;;;;4973338;28;20456;-68
2022/11/12 08:32:33;;;;;;;4.65;2.35;;;6.30;99.90;;;;;;4981325;28;20042;-67
2022/11/12 08:34:58;;;;;;;5.82;2.60;;;6.40;99.90;;;;;;4981287;28;20049;-67
2022/11/12 08:37:24;;;;;;;5.15;2.72;;;6.50;99.90;;;;;;4977314;28;20041;-68
2022/11/12 08:39:50;;;;;;;5.60;2.88;;;6.50;99.90;;;;;;4981201;28;20030;-67
2022/11/12 08:42:15;;;;;;;6.05;2.92;;;6.70;99.90;;;;;;4989503;28;20027;-68
2022/11/12 08:44:41;;;;;;;5.75;2.95;;;6.80;99.90;;;;;;4980344;28;20451;-67
2022/11/12 08:47:06;;;;;;;5.57;3.53;;;6.90;99.90;;;;;;4990544;28;20042;-68
2022/11/12 08:49:32;;;;;;;5.63;3.40;;;7.00;99.90;;;;;;4977931;28;20034;-67
2022/11/12 08:51:57;;;;;;;5.93;3.80;;;7.10;99.90;;;;;;4983076;28;20433;-67
2022/11/12 08:54:23;;;;;;;6.47;3.22;;;7.10;99.90;;;;;;4977446;28;20475;-68
2022/11/12 08:56:49;;;;;;;7.10;3.10;;;7.20;99.90;;;;;;4979758;28;20031;-68
2022/11/12 08:59:15;;;;;;;5.70;3.53;;;7.30;99.90;;;;;;4989775;28;20065;-68
2022/11/12 09:01:41;;;;;;;7.32;3.83;;;7.40;99.90;;;;;;4976656;28;20062;-68
2022/11/12 09:04:07;;;;;;;5.25;2.90;;;7.50;99.90;;;;;;4980401;28;20097;-67
2022/11/12 09:06:33;;;;;;;8.43;4.32;;;7.60;99.90;;;;;;4977929;28;20050;-67
2022/11/12 09:08:58;;;;;;;6.88;3.85;;;7.60;99.90;;;;;;4986449;28;20039;-67
2022/11/12 09:11:24;;;;;;;9.00;4.25;;;7.70;99.90;;;;;;4989539;28;20033;-68
2022/11/12 09:13:52;;;;;;;10.27;4.60;;;7.80;99.90;;;;;;4983881;28;20026;-67
2022/11/12 09:16:18;;;;;;;10.85;4.03;;;7.90;99.90;;;;;;4985739;28;20061;-68
2022/11/12 09:18:43;;;;;;;7.95;5.00;;;8.00;99.90;;;;;;4986900;28;20047;-67
2022/11/12 09:21:11;;;;;;;6.35;4.68;;;8.20;99.90;;;;;;4977069;28;20078;-68
2022/11/12 09:23:37;;;;;;;6.85;4.00;;;8.50;99.90;;;;;;4973462;28;20030;-68
2022/11/12 09:26:03;;;;;;;8.45;4.63;;;8.80;99.90;;;;;;4984531;28;20388;-68
2022/11/12 09:28:29;;;;;;;7.90;4.72;;;9.10;99.90;;;;;;4989599;28;20023;-68
2022/11/12 09:30:55;;;;;;;8.98;4.03;;;9.60;99.90;;;;;;4989340;28;20034;-68
2022/11/12 09:33:32;;;;;;;6.63;3.97;;;9.90;99.90;;;;;;4981242;28;20041;-68
2022/11/12 09:36:00;;;;;;;9.85;4.93;;;10.30;99.90;;;;;;4979270;28;20029;-68
2022/11/12 09:38:26;;;;;;;6.63;3.65;;;10.30;99.90;;;;;;4973506;28;20119;-68
2022/11/12 09:40:52;;;;;;;9.93;4.57;;;10.40;99.90;;;;;;4985934;28;20109;-68
2022/11/12 09:43:29;;;;;;;9.48;4.32;;;10.40;99.90;;;;;;4980667;28;20038;-68
2022/11/12 09:46:00;;;;;;;8.02;4.18;;;10.50;99.90;;;;;;4981931;28;20026;-67
2022/11/12 09:48:35;;;;;;;6.88;4.20;;;10.50;99.90;;;;;;4984794;28;20022;-67
2022/11/12 09:51:18;;;;;;;8.35;4.45;;;10.60;99.90;;;;;;4984462;28;20625;-68
2022/11/12 09:53:57;;;;;;;6.38;4.03;;;10.50;99.90;;;;;;4977684;28;20034;-68
2022/11/12 09:56:23;;;;;;;7.03;3.90;;;10.50;99.90;;;;;;4980823;28;20042;-68
2022/11/12 09:58:50;;;;;;;6.88;3.95;;;10.40;99.90;;;;;;4986091;28;20136;-68
2022/11/12 10:01:35;;;;;;;7.38;3.85;;;10.40;99.90;;;;;;4969736;28;20045;-67
2022/11/12 10:04:22;;;;;;;7.90;4.30;;;10.30;99.90;;;;;;4984061;28;20042;-68
2022/11/12 10:06:59;;;;;;;5.88;3.78;;;10.30;99.90;;;;;;4984806;28;20030;-67
2022/11/12 10:09:33;;;;;;;10.18;4.05;;;10.40;99.90;;;;;;4988108;28;20054;-68
2022/11/12 10:12:35;;;;;;;8.95;4.57;;;10.40;99.90;;;;;;4977552;28;20022;-68
2022/11/12 10:18:15;;;;;;;7.93;4.70;;;10.50;99.90;;;;;;4988220;28;20157;-68
2022/11/12 10:21:13;;;;;;;7.13;3.78;;;10.50;99.90;;;;;;4977364;28;20027;-67
2022/11/12 10:23:46;;;;;;;8.75;4.35;;;10.60;99.90;;;;;;4984036;28;20385;-67
2022/11/12 10:26:17;;;;;;;8.27;4.07;;;10.60;99.90;;;;;;4984209;28;20018;-67
2022/11/12 10:28:58;;;;;;;8.00;4.35;;;10.60;99.90;;;;;;4979584;28;20034;-67
2022/11/12 10:31:24;;;;;;;7.35;3.78;;;10.70;99.90;;;;;;4983889;28;20381;-67
2022/11/12 10:33:49;;;;;;;5.15;3.90;;;10.80;99.90;;;;;;4980670;28;20019;-67
2022/11/12 10:36:28;;;;;;;6.07;4.07;;;10.90;99.90;;;;;;4981344;28;20077;-67
2022/11/12 10:38:54;;;;;;;7.47;3.88;;;11.00;99.90;;;;;;4977263;28;20031;-66
2022/11/12 10:41:21;;;;;;;5.10;3.65;;;11.10;99.90;;;;;;4982787;28;20027;-67
2022/11/12 10:43:55;;;;;;;7.38;4.38;;;11.20;99.90;;;;;;4981897;28;20026;-68
2022/11/12 10:46:23;;;;;;;8.95;3.65;;;11.20;99.90;;;;;;4973381;28;20061;-67
2022/11/12 10:49:02;;;;;;;10.77;4.40;;;11.20;99.90;;;;;;4980502;28;20027;-67
2022/11/12 10:51:36;;;;;;;5.75;3.17;;;11.30;99.90;;;;;;4977210;28;20444;-67
2022/11/12 10:54:40;;;;;;;11.70;4.38;;;11.30;99.90;;;;;;4982868;28;20023;-67
2022/11/12 10:57:23;;;;;;;6.00;3.90;;;11.40;99.90;;;;;;4945391;28;20535;-67
2022/11/12 11:00:11;;;;;;;4.82;3.67;;;11.40;99.90;;;;;;4957564;28;20074;-67
2022/11/12 11:02:44;;;;;;;7.10;3.40;;;11.50;99.90;;;;;;4976536;28;20695;-67
2022/11/12 11:05:34;;;;;;;9.55;4.65;;;11.60;99.90;;;;;;4964064;28;20089;-67
2022/11/12 11:08:01;;;;;;;4.50;3.10;;;11.70;99.90;;;;;;4983073;28;20035;-67
2022/11/12 11:10:29;;;;;;;6.15;3.88;;;11.70;99.90;;;;;;4978951;28;20121;-67
2022/11/12 11:13:08;;;;;;;10.30;4.32;;;11.70;99.90;;;;;;4984069;28;20117;-67
2022/11/12 11:15:34;;;;;;;7.75;3.92;;;11.80;99.90;;;;;;4980827;28;20112;-67
2022/11/12 11:17:59;;;;;;;7.43;3.90;;;11.90;99.90;;;;;;4971287;28;20497;-67
2022/11/12 11:20:39;;;;;;;14.45;4.07;;;11.90;99.90;;;;;;4974329;28;20039;-68
2022/11/12 11:23:25;;;;;;;6.35;4.18;;;11.90;99.90;;;;;;4977780;28;20030;-67
2022/11/12 11:25:54;;;;;;;5.72;3.67;;;11.90;99.90;;;;;;4982337;28;20029;-67
2022/11/12 11:28:42;;;;;;;5.85;3.90;;;11.90;99.90;;;;;;4983944;28;20030;-67
2022/11/12 11:31:11;;;;;;;8.25;3.55;;;12.00;99.90;;;;;;4987160;28;20049;-67
2022/11/12 11:33:55;;;;;;;6.10;3.65;;;12.00;99.90;;;;;;4974388;28;20057;-67
2022/11/12 11:36:36;;;;;;;7.85;3.42;;;12.00;99.90;;;;;;4982554;28;20117;-67
2022/11/12 11:39:24;;;;;;;6.25;4.00;;;12.00;99.90;;;;;;4983654;28;20046;-67
2022/11/12 11:42:15;;;;;;;5.60;3.60;;;12.10;99.90;;;;;;4994959;28;20101;-67
2022/11/12 11:44:46;;;;;;;5.20;3.22;;;12.20;99.90;;;;;;4970048;28;20070;-68
2022/11/12 11:47:28;;;;;;;5.93;3.72;;;12.20;99.90;;;;;;4978103;28;20373;-67
2022/11/12 11:50:24;;;;;;;5.90;3.08;;;12.30;99.90;;;;;;4977075;28;20022;-67
2022/11/12 11:53:32;;;;;;;5.63;3.83;;;12.30;99.90;;;;;;4968738;28;20035;-67
2022/11/12 11:56:25;;;;;;;9.52;3.75;;;12.40;99.90;;;;;;4982548;28;20041;-67
2022/11/12 11:59:23;;;;;;;7.00;3.42;;;12.50;99.90;;;;;;4974593;28;20046;-67
2022/11/12 12:01:49;;;;;;;7.53;3.15;;;12.50;99.90;;;;;;4952496;28;20042;-67
2022/11/12 12:04:30;;;;;;;6.35;3.50;;;12.50;99.90;;;;;;4984996;28;20395;-67
2022/11/12 12:07:11;;;;;;;5.00;3.40;;;12.60;99.90;;;;;;4980588;28;20097;-68
2022/11/12 12:09:55;;;;;;;11.52;4.22;;;12.60;99.90;;;;;;4976949;28;20058;-67
2022/11/12 12:12:48;;;;;;;5.20;2.95;;;12.60;99.90;;;;;;4980001;28;20078;-67
2022/11/12 12:15:47;;;;;;;7.03;3.05;;;12.60;99.90;;;;;;4977844;28;20560;-67
2022/11/12 12:18:19;;;;;;;5.95;3.45;;;12.60;99.90;;;;;;4983585;28;20038;-67
2022/11/12 12:20:58;;;;;;;4.38;3.22;;;12.60;99.90;;;;;;4976961;28;20022;-67
2022/11/12 12:23:42;;;;;;;4.40;3.22;;;12.70;99.90;;;;;;4987754;28;20404;-69
2022/11/12 12:26:22;;;;;;;4.05;2.83;;;12.70;99.90;;;;;;4985444;28;20069;-68
2022/11/12 12:29:02;;;;;;;5.22;2.97;;;12.70;99.90;;;;;;4983830;28;20097;-67
2022/11/12 12:32:00;;;;;;;5.90;3.05;;;12.70;99.90;;;;;;4986988;28;20064;-66
2022/11/12 12:34:34;;;;;;;7.53;3.85;;;12.80;99.90;;;;;;4964098;28;20394;-66
2022/11/12 12:37:21;;;;;;;6.80;3.13;;;12.70;99.90;;;;;;4983296;28;20023;-67
2022/11/12 12:39:57;;;;;;;4.18;2.35;;;12.80;99.90;;;;;;4979910;28;20022;-67
2022/11/12 12:42:38;;;;;;;5.63;2.80;;;12.80;99.90;;;;;;4987440;28;20036;-67
2022/11/12 12:45:37;;;;;;;3.03;2.40;;;12.90;99.90;;;;;;4985255;28;20034;-68
2022/11/12 12:48:06;;;;;;;4.78;2.67;;;12.90;99.90;;;;;;4977483;28;20034;-66
2022/11/12 12:50:35;;;;;;;4.70;3.03;;;12.90;99.90;;;;;;4981136;28;20022;-67
2022/11/12 12:53:02;;;;;;;6.43;2.60;;;12.90;99.90;;;;;;4977860;28;20041;-67
2022/11/12 12:55:48;;;;;;;4.82;2.40;;;12.90;99.90;;;;;;4983673;28;20100;-67
2022/11/12 12:58:17;;;;;;;4.13;2.50;;;13.10;99.90;;;;;;4981152;28;20128;-67
2022/11/12 13:00:54;;;;;;;6.45;2.47;;;13.10;99.90;;;;;;4985390;28;20096;-67
2022/11/12 13:03:41;;;;;;;4.43;2.60;;;13.10;99.90;;;;;;4988687;28;20707;-67
2022/11/12 13:06:22;;;;;;;4.95;2.53;;;13.20;99.90;;;;;;4975050;28;20081;-67
2022/11/12 13:08:59;;;;;;;2.60;2.33;;;13.20;99.90;;;;;;4973596;28;20063;-67
2022/11/12 13:14:30;;;;;;;3.58;2.40;;;13.30;99.90;;;;;;4984504;28;20080;-67
2022/11/12 13:17:06;;;;;;;5.90;2.35;;;13.40;99.90;;;;;;4991034;28;20064;-67
2022/11/12 13:19:43;;;;;;;4.30;2.67;;;13.40;99.90;;;;;;4987465;28;20492;-66
2022/11/12 13:22:17;;;;;;;3.85;2.05;;;13.40;99.90;;;;;;4991840;28;20304;-67
2022/11/12 13:25:10;;;;;;;7.00;2.17;;;13.40;99.90;;;;;;4982744;28;20110;-67
2022/11/12 13:27:39;;;;;;;4.30;2.45;;;13.50;99.90;;;;;;4979736;28;20023;-67
2022/11/12 13:30:15;;;;;;;3.65;2.03;;;13.50;99.90;;;;;;4986595;28;20036;-67
2022/11/12 13:32:47;;;;;;;5.10;2.40;;;13.50;99.90;;;;;;4985647;28;20030;-67
2022/11/12 13:35:21;;;;;;;2.88;1.75;;;13.60;99.90;;;;;;5014896;23;20041;-64
2022/11/12 13:38:08;;;;;;;3.78;2.50;;;13.60;99.90;;;;;;5010220;28;20104;-65